Time;durP1;ratioP1;P1;durP2;ratioP2;P2;SDS_P1;SDS_P2;PMS_P1;PMS_P2;Temp;Humidity;BMP_temperature;BMP_pressure;BME280_temperature;BME280_humidity;BME280_pressure;Samples;Min_cycle;Max_cycle;Signal;HPM_P1;HPM_P2
2023/07/03 00:01:11;;;;;;;9.57;2.73;;;;;;;15.47;71.30;100888.38;4888819;29;20374;-94
2023/07/03 00:03:38;;;;;;;15.97;3.43;;;;;;;15.47;71.71;100888.38;4880110;29;20073;-93
2023/07/03 00:06:04;;;;;;;17.80;3.80;;;;;;;15.46;71.71;100886.75;4898361;29;20032;-94
2023/07/03 00:08:29;;;;;;;10.60;2.67;;;;;;;15.45;71.51;100901.34;4908379;29;20025;-94
2023/07/03 00:11:02;;;;;;;12.40;2.87;;;;;;;15.44;72.36;100891.66;4904193;29;20776;-95
2023/07/03 00:13:28;;;;;;;12.02;3.20;;;;;;;15.32;72.61;100864.25;4918532;29;20041;-94
2023/07/03 00:15:58;;;;;;;14.17;3.40;;;;;;;15.41;72.96;100884.13;4909715;29;20020;-95
2023/07/03 00:18:23;;;;;;;15.15;3.25;;;;;;;15.45;72.11;100885.16;4895827;29;20025;-94
2023/07/03 00:20:54;;;;;;;12.90;3.17;;;;;;;15.32;72.95;100865.06;4913731;29;20039;-94
2023/07/03 00:23:20;;;;;;;17.75;3.63;;;;;;;15.36;72.73;100870.66;4898361;29;20488;-94
2023/07/03 00:25:46;;;;;;;15.25;3.25;;;;;;;15.35;73.09;100874.47;4914380;29;20055;-95
2023/07/03 00:28:11;;;;;;;14.13;3.20;;;;;;;15.27;73.34;100863.22;4889850;29;20028;-93
2023/07/03 00:30:36;;;;;;;15.80;3.70;;;;;;;15.31;73.97;100868.84;4891936;29;20032;-93
2023/07/03 00:33:02;;;;;;;11.93;3.13;;;;;;;15.37;74.05;100874.97;4884638;29;20032;-94
2023/07/03 00:35:27;;;;;;;13.43;3.13;;;;;;;15.40;74.20;100882.50;4911461;29;20513;-95
2023/07/03 00:37:52;;;;;;;21.57;3.57;;;;;;;15.33;74.49;100876.66;4908425;29;20036;-94
2023/07/03 00:40:18;;;;;;;17.50;4.00;;;;;;;15.32;75.23;100883.16;4909400;29;20032;-94
2023/07/03 00:42:43;;;;;;;16.17;3.57;;;;;;;15.24;74.84;100874.59;4878642;29;20036;-94
2023/07/03 00:45:09;;;;;;;13.05;3.13;;;;;;;15.25;75.37;100889.69;4879465;29;20041;-94
2023/07/03 00:47:35;;;;;;;14.20;3.20;;;;;;;15.11;75.32;100865.28;4903556;29;20164;-94
2023/07/03 00:50:00;;;;;;;22.33;3.60;;;;;;;15.14;75.70;100863.94;4899637;29;20395;-94
2023/07/03 00:52:26;;;;;;;16.83;3.67;;;;;;;15.27;76.05;100886.69;4908020;29;20456;-94
2023/07/03 00:54:53;;;;;;;21.02;4.00;;;;;;;15.21;76.15;100874.38;4915442;29;20040;-93
2023/07/03 00:57:18;;;;;;;12.83;3.13;;;;;;;15.22;75.91;100878.69;4861937;29;20561;-94
2023/07/03 00:59:44;;;;;;;15.32;3.40;;;;;;;15.18;76.39;100874.94;4892802;29;20041;-94
2023/07/03 01:02:22;;;;;;;13.02;3.53;;;;;;;15.13;76.28;100873.13;4890454;29;20040;-95
2023/07/03 01:04:54;;;;;;;13.47;3.00;;;;;;;15.00;76.75;100861.13;4913247;29;20028;-94
2023/07/03 01:07:25;;;;;;;18.45;3.20;;;;;;;15.07;77.27;100869.66;4899535;29;20075;-95
2023/07/03 01:09:55;;;;;;;16.65;3.65;;;;;;;15.09;77.79;100878.25;4900010;29;20074;-95
2023/07/03 01:12:24;;;;;;;19.80;3.28;;;;;;;15.08;78.04;100868.56;4917822;29;20073;-95
2023/07/03 01:14:50;;;;;;;13.93;3.25;;;;;;;15.06;77.99;100864.56;4910573;29;20025;-94
2023/07/03 01:17:16;;;;;;;15.63;3.20;;;;;;;15.05;78.34;100861.06;4909296;29;20040;-94
2023/07/03 01:19:45;;;;;;;19.38;3.35;;;;;;;15.05;78.90;100871.84;4911072;29;20040;-93
2023/07/03 01:22:13;;;;;;;21.02;3.45;;;;;;;15.05;79.05;100873.72;4918867;29;20115;-93
2023/07/03 01:24:47;;;;;;;20.03;3.40;;;;;;;15.03;79.63;100867.81;4910338;29;20136;-94
2023/07/03 01:27:16;;;;;;;16.37;3.27;;;;;;;14.97;79.70;100875.97;4895090;29;20296;-94
2023/07/03 01:29:43;;;;;;;18.33;3.35;;;;;;;14.84;80.36;100861.28;4904820;29;20543;-93
2023/07/03 01:32:11;;;;;;;25.65;4.00;;;;;;;14.92;80.78;100878.72;4877280;29;20093;-95
2023/07/03 01:34:43;;;;;;;17.65;3.60;;;;;;;14.80;81.06;100862.13;4903567;29;20099;-94
2023/07/03 01:37:10;;;;;;;19.58;3.78;;;;;;;14.81;81.77;100861.84;4900634;29;20040;-94
2023/07/03 01:39:36;;;;;;;20.48;3.72;;;;;;;14.75;82.03;100868.38;4914927;29;20060;-93
2023/07/03 01:42:04;;;;;;;17.58;3.47;;;;;;;14.80;82.20;100871.03;4903465;29;20071;-95
2023/07/03 01:44:30;;;;;;;16.93;3.77;;;;;;;14.66;82.59;100854.66;4899933;29;20507;-95
2023/07/03 01:47:03;;;;;;;18.97;3.77;;;;;;;14.83;82.01;100872.34;4909656;29;20293;-94
2023/07/03 01:49:28;;;;;;;18.65;3.75;;;;;;;14.75;83.99;100868.38;4904584;29;20040;-93
2023/07/03 01:52:05;;;;;;;17.20;3.70;;;;;;;14.72;83.69;100866.22;4904797;29;20024;-93
2023/07/03 01:54:52;;;;;;;19.83;3.88;;;;;;;14.73;84.40;100867.06;4905115;29;20512;-94
2023/07/03 01:57:25;;;;;;;18.33;3.67;;;;;;;14.62;84.74;100850.13;4896454;29;20036;-94
2023/07/03 01:59:53;;;;;;;22.55;4.25;;;;;;;14.63;85.07;100857.94;4908320;29;20031;-94
2023/07/03 02:02:24;;;;;;;16.87;3.57;;;;;;;14.55;85.71;100850.47;4916295;29;20548;-94
2023/07/03 02:05:01;;;;;;;20.13;3.40;;;;;;;14.60;85.52;100855.00;4897770;29;20391;-93
2023/07/03 02:07:29;;;;;;;17.83;3.65;;;;;;;14.61;86.24;100865.50;4887951;29;20515;-93
2023/07/03 02:09:55;;;;;;;18.35;3.38;;;;;;;14.59;86.21;100856.91;4884562;29;20036;-94
2023/07/03 02:12:20;;;;;;;20.25;3.67;;;;;;;14.52;87.15;100845.66;4905622;29;20088;-92
2023/07/03 02:14:45;;;;;;;20.63;3.60;;;;;;;14.58;87.30;100852.59;4915472;29;20036;-93
2023/07/03 02:17:12;;;;;;;20.03;3.87;;;;;;;14.48;87.55;100848.09;4913118;29;20047;-94
2023/07/03 02:19:37;;;;;;;20.33;3.78;;;;;;;14.40;88.27;100840.63;4883570;29;20035;-94
2023/07/03 02:22:03;;;;;;;24.93;3.67;;;;;;;14.41;88.71;100854.91;4885186;29;20036;-93
2023/07/03 02:24:29;;;;;;;21.25;4.07;;;;;;;14.42;89.05;100859.22;4891166;29;20029;-94
2023/07/03 02:26:54;;;;;;;26.67;4.25;;;;;;;14.33;91.03;100859.03;4919884;29;20032;-94
2023/07/03 02:29:20;;;;;;;23.13;4.13;;;;;;;14.26;91.87;100851.25;4895155;29;20040;-95
2023/07/03 02:31:46;;;;;;;23.75;3.92;;;;;;;14.31;92.21;100863.91;4897257;29;20017;-94
2023/07/03 02:34:11;;;;;;;20.57;3.37;;;;;;;14.27;92.01;100858.25;4923927;29;20107;-93
2023/07/03 02:36:38;;;;;;;24.30;4.20;;;;;;;14.11;92.68;100840.59;4917443;29;20083;-94
2023/07/03 02:39:05;;;;;;;22.27;3.97;;;;;;;14.06;92.77;100839.53;4907128;29;20096;-93
2023/07/03 02:41:31;;;;;;;26.90;3.90;;;;;;;14.09;93.80;100855.16;4914922;29;20103;-94
2023/07/03 02:43:57;;;;;;;21.70;4.40;;;;;;;14.01;95.22;100850.38;4903858;29;20304;-94
2023/07/03 02:46:23;;;;;;;27.75;4.57;;;;;;;13.92;94.51;100835.88;4898579;29;20198;-93
2023/07/03 02:48:48;;;;;;;23.37;3.63;;;;;;;13.84;96.52;100839.16;4913049;29;20068;-93
2023/07/03 02:51:14;;;;;;;21.70;4.30;;;;;;;13.73;96.88;100822.28;4894258;29;20289;-94
2023/07/03 02:53:39;;;;;;;23.90;4.10;;;;;;;13.73;97.63;100841.91;4883531;29;20504;-93
2023/07/03 02:56:05;;;;;;;21.90;4.03;;;;;;;13.57;99.21;100826.94;4900236;29;20028;-93
2023/07/03 02:58:30;;;;;;;29.65;4.82;;;;;;;13.59;100.00;100835.53;4906486;29;20052;-94
2023/07/03 03:00:56;;;;;;;26.67;4.13;;;;;;;13.54;100.00;100835.56;4908238;29;20032;-93
2023/07/03 03:03:22;;;;;;;25.52;4.10;;;;;;;13.42;100.00;100828.63;4894766;29;20060;-94
2023/07/03 03:05:47;;;;;;;28.33;4.47;;;;;;;13.32;100.00;100816.00;4904960;29;20166;-93
2023/07/03 03:08:13;;;;;;;20.93;4.00;;;;;;;13.48;100.00;100842.88;4911245;29;20057;-92
2023/07/03 03:10:38;;;;;;;23.23;4.47;;;;;;;13.41;100.00;100827.00;4915652;29;20039;-93
2023/07/03 03:13:04;;;;;;;28.50;4.80;;;;;;;13.38;100.00;100832.13;4916233;29;20083;-93
2023/07/03 03:15:34;;;;;;;21.50;4.68;;;;;;;13.31;100.00;100829.75;4893748;29;20616;-94
2023/07/03 03:17:59;;;;;;;23.90;4.35;;;;;;;13.33;100.00;100838.31;4905997;29;20523;-93
2023/07/03 03:20:25;;;;;;;26.67;4.23;;;;;;;13.30;100.00;100826.22;4912673;29;20111;-93
2023/07/03 03:22:50;;;;;;;28.08;4.43;;;;;;;13.45;100.00;100829.94;4905232;29;20036;-93
2023/07/03 03:25:15;;;;;;;21.77;4.20;;;;;;;13.47;100.00;100825.91;4903056;29;20477;-93
2023/07/03 03:27:41;;;;;;;20.53;4.57;;;;;;;13.53;100.00;100829.38;4914288;29;20039;-93
2023/07/03 03:30:07;;;;;;;27.97;4.70;;;;;;;13.50;100.00;100829.13;4901434;29;20092;-93
2023/07/03 03:32:32;;;;;;;22.23;4.10;;;;;;;13.44;100.00;100821.09;4902141;29;20021;-91
2023/07/03 03:34:57;;;;;;;26.20;4.90;;;;;;;13.46;100.00;100818.94;4907454;29;20092;-93
2023/07/03 03:37:22;;;;;;;27.47;4.20;;;;;;;13.53;100.00;100825.88;4910615;29;20119;-93
2023/07/03 03:39:48;;;;;;;33.43;4.80;;;;;;;13.52;100.00;100824.25;4911470;29;20034;-93
2023/07/03 03:42:13;;;;;;;28.65;4.70;;;;;;;13.44;100.00;100814.88;4915953;29;20111;-93
2023/07/03 03:44:38;;;;;;;24.67;4.30;;;;;;;13.48;100.00;100819.47;4911989;29;20127;-93
2023/07/03 03:47:04;;;;;;;26.37;4.13;;;;;;;13.45;100.00;100825.38;4925762;29;20036;-93
2023/07/03 03:49:30;;;;;;;35.10;4.82;;;;;;;13.43;100.00;100841.00;4912113;29;20064;-95
2023/07/03 03:51:56;;;;;;;28.25;4.63;;;;;;;13.48;100.00;100832.09;4887133;29;20036;-93
2023/07/03 03:54:21;;;;;;;23.67;3.97;;;;;;;13.52;100.00;100832.34;4936313;29;20060;-93
2023/07/03 03:56:47;;;;;;;25.47;4.60;;;;;;;13.54;100.00;100831.00;4912891;29;20481;-93
2023/07/03 03:59:13;;;;;;;31.13;5.15;;;;;;;13.50;100.00;100818.38;4904624;29;20810;-93
2023/07/03 04:01:38;;;;;;;20.83;4.07;;;;;;;13.60;100.00;100823.69;4905386;29;20119;-93
2023/07/03 04:04:04;;;;;;;22.27;4.65;;;;;;;13.62;100.00;100833.09;4898005;29;20029;-94
2023/07/03 04:06:30;;;;;;;29.23;4.83;;;;;;;13.62;100.00;100837.69;4897141;29;20051;-95
2023/07/03 04:08:58;;;;;;;20.13;4.43;;;;;;;13.54;100.00;100831.00;4892938;29;20308;-90
2023/07/03 04:11:25;;;;;;;23.10;4.68;;;;;;;13.41;100.00;100826.22;4895644;29;20060;-92
2023/07/03 04:13:50;;;;;;;28.75;4.97;;;;;;;13.40;100.00;100827.28;4898419;29;20021;-94
2023/07/03 04:16:16;;;;;;;26.67;4.57;;;;;;;13.43;100.00;100832.94;4916156;29;20042;-93
2023/07/03 04:18:41;;;;;;;26.05;4.82;;;;;;;13.44;100.00;100826.47;4899874;29;20028;-93
2023/07/03 04:21:06;;;;;;;26.93;4.63;;;;;;;13.60;100.00;100834.47;4895474;29;20054;-94
2023/07/03 04:23:32;;;;;;;28.30;4.53;;;;;;;13.71;100.00;100836.00;4900184;29;20051;-91
2023/07/03 04:25:58;;;;;;;27.10;5.10;;;;;;;13.75;100.00;100841.66;4913927;29;20148;-92
2023/07/03 04:28:23;;;;;;;31.40;5.28;;;;;;;13.86;100.00;100845.09;4894093;29;20048;-91
2023/07/03 04:30:49;;;;;;;32.80;4.80;;;;;;;14.07;100.00;100843.03;4903830;29;20039;-91
2023/07/03 04:33:15;;;;;;;34.73;5.47;;;;;;;14.24;100.00;100837.28;4915423;29;20393;-90
2023/07/03 04:35:41;;;;;;;30.70;5.13;;;;;;;14.22;100.00;100834.06;4910842;29;20017;-86
2023/07/03 04:38:06;;;;;;;36.58;5.88;;;;;;;14.26;100.00;100836.97;4889630;29;20025;-87
2023/07/03 04:40:32;;;;;;;32.33;5.07;;;;;;;14.12;100.00;100826.84;4877647;29;20377;-87
2023/07/03 04:42:58;;;;;;;28.45;4.78;;;;;;;14.18;100.00;100846.47;4894369;29;20029;-87
2023/07/03 04:45:25;;;;;;;29.38;4.90;;;;;;;14.22;100.00;100845.63;4892120;29;20397;-87
2023/07/03 04:47:51;;;;;;;26.00;5.80;;;;;;;14.26;100.00;100842.38;4889396;29;20037;-87
2023/07/03 04:50:17;;;;;;;18.92;4.30;;;;;;;14.32;100.00;100838.56;4892359;29;20048;-87
2023/07/03 04:52:45;;;;;;;25.90;4.85;;;;;;;14.44;100.00;100855.16;4909371;29;20028;-87
2023/07/03 04:55:11;;;;;;;25.75;5.18;;;;;;;14.43;100.00;100855.41;4914425;29;20032;-87
2023/07/03 04:57:38;;;;;;;26.17;5.22;;;;;;;14.50;100.00;100853.22;4909061;29;20024;-86
2023/07/03 05:00:14;;;;;;;21.90;5.10;;;;;;;14.47;100.00;100851.91;4899258;29;20037;-87
2023/07/03 05:02:45;;;;;;;31.27;5.13;;;;;;;14.49;100.00;100859.69;4911203;29;20031;-85
2023/07/03 05:05:11;;;;;;;27.20;4.73;;;;;;;14.49;100.00;100862.38;4914109;29;20028;-84
2023/07/03 05:07:38;;;;;;;27.23;4.90;;;;;;;14.51;100.00;100873.69;4902105;29;20297;-84
2023/07/03 05:10:04;;;;;;;29.25;5.20;;;;;;;14.54;100.00;100871.22;4900838;29;20502;-86
2023/07/03 05:12:30;;;;;;;26.40;4.90;;;;;;;14.45;100.00;100858.63;4910734;29;20051;-87
2023/07/03 05:14:56;;;;;;;28.43;4.67;;;;;;;14.55;100.00;100877.44;4925904;29;20028;-86
2023/07/03 05:17:22;;;;;;;26.67;4.50;;;;;;;14.54;100.00;100873.13;4919573;29;20056;-87
2023/07/03 05:19:47;;;;;;;23.65;4.78;;;;;;;14.62;100.00;100875.19;4901088;29;20068;-88
2023/07/03 05:22:13;;;;;;;27.43;4.43;;;;;;;14.76;100.00;100880.78;4894341;29;20025;-89
2023/07/03 05:24:38;;;;;;;30.23;5.27;;;;;;;15.25;100.00;100884.31;4896307;29;20036;-87
2023/07/03 05:27:04;;;;;;;28.37;4.63;;;;;;;16.48;97.51;100889.09;4896564;29;20032;-88
2023/07/03 05:29:32;;;;;;;21.42;4.25;;;;;;;17.79;87.30;100886.34;4892704;29;20143;-88
2023/07/03 05:32:00;;;;;;;20.63;4.45;;;;;;;18.85;79.95;100887.06;4905640;29;20036;-86
2023/07/03 05:34:25;;;;;;;17.83;4.53;;;;;;;19.92;74.97;100878.88;4895868;29;20064;-85
2023/07/03 05:36:51;;;;;;;23.33;4.90;;;;;;;20.96;69.21;100893.44;4890720;29;20029;-88
2023/07/03 05:39:16;;;;;;;15.50;4.03;;;;;;;21.43;65.63;100899.91;4892968;29;20068;-86
2023/07/03 05:41:41;;;;;;;21.57;4.13;;;;;;;21.76;64.06;100904.69;4888700;29;20485;-89
2023/07/03 05:44:07;;;;;;;22.40;4.73;;;;;;;21.08;63.90;100908.28;4892089;29;20032;-88
2023/07/03 05:46:33;;;;;;;25.63;4.70;;;;;;;19.95;68.48;100898.09;4894879;29;20044;-89
2023/07/03 05:48:58;;;;;;;17.30;4.30;;;;;;;18.92;73.03;100903.69;4893697;29;20452;-88
2023/07/03 05:51:24;;;;;;;21.87;4.30;;;;;;;18.36;77.12;100892.38;4901755;29;20028;-89
2023/07/03 05:53:50;;;;;;;23.03;4.97;;;;;;;18.01;79.51;100906.47;4902558;29;20484;-88
2023/07/03 05:56:16;;;;;;;31.40;5.85;;;;;;;17.63;81.19;100893.19;4894860;29;20020;-88
2023/07/03 05:58:41;;;;;;;26.37;5.07;;;;;;;17.28;84.14;100907.16;4891678;29;20036;-89
2023/07/03 06:01:06;;;;;;;23.17;4.43;;;;;;;17.01;85.49;100897.13;4895954;29;20028;-88
2023/07/03 06:03:32;;;;;;;16.95;4.28;;;;;;;16.86;87.43;100899.00;4894616;29;20035;-88
2023/07/03 06:05:58;;;;;;;27.03;4.60;;;;;;;16.70;87.87;100912.00;4904783;29;20028;-88
2023/07/03 06:08:24;;;;;;;20.10;4.65;;;;;;;16.72;88.16;100914.38;4908324;29;20033;-93
2023/07/03 06:10:49;;;;;;;25.43;5.13;;;;;;;16.72;89.08;100895.44;4893263;29;20067;-93
2023/07/03 06:13:15;;;;;;;20.60;4.33;;;;;;;16.85;88.33;100908.22;4895657;29;20478;-92
2023/07/03 06:15:41;;;;;;;22.33;4.65;;;;;;;16.92;89.05;100902.41;4898827;29;20016;-96
2023/07/03 06:18:07;;;;;;;22.65;4.63;;;;;;;17.00;87.99;100909.84;4900186;29;20032;-96
2023/07/03 06:20:34;;;;;;;22.60;4.20;;;;;;;17.05;87.67;100896.22;4915534;29;20037;-96
2023/07/03 06:22:59;;;;;;;25.85;4.47;;;;;;;17.08;87.41;100906.47;4909898;29;20473;-96
2023/07/03 06:25:25;;;;;;;18.90;4.60;;;;;;;17.00;88.08;100911.78;4907114;29;20027;-96
2023/07/03 06:27:50;;;;;;;16.20;4.23;;;;;;;17.02;87.74;100913.06;4910532;29;20032;-96
2023/07/03 06:30:16;;;;;;;20.10;4.57;;;;;;;16.95;87.77;100904.56;4912510;29;20434;-95
2023/07/03 06:32:41;;;;;;;22.15;4.60;;;;;;;17.06;88.40;100907.88;4926422;29;20457;-96
2023/07/03 06:40:19;;;;;;;20.37;4.30;;;;;;;17.10;85.98;100873.66;4907166;29;20325;-95
2023/07/03 06:42:44;;;;;;;23.27;4.22;;;;;;;17.53;84.89;100907.75;4900786;29;20052;-94
2023/07/03 06:45:11;;;;;;;24.23;4.43;;;;;;;17.72;84.32;100902.22;4900325;29;20492;-93
2023/07/03 06:47:36;;;;;;;21.33;3.97;;;;;;;17.94;83.55;100919.63;4896121;29;20426;-92
2023/07/03 06:50:02;;;;;;;20.83;4.50;;;;;;;17.79;81.92;100890.94;4905318;29;20039;-93
2023/07/03 06:52:27;;;;;;;26.17;4.40;;;;;;;17.83;81.21;100892.72;4904040;29;20495;-94
2023/07/03 06:54:55;;;;;;;16.13;3.40;;;;;;;17.89;80.31;100900.75;4902678;29;20423;-94
2023/07/03 06:57:21;;;;;;;20.83;4.18;;;;;;;18.05;79.92;100903.97;4905020;29;20040;-94
2023/07/03 06:59:46;;;;;;;22.53;4.73;;;;;;;18.17;78.32;100896.06;4902035;29;20461;-92
2023/07/03 07:02:11;;;;;;;22.87;4.00;;;;;;;18.31;76.91;100888.66;4904044;29;20051;-93
2023/07/03 07:04:37;;;;;;;25.33;4.30;;;;;;;18.59;76.62;100901.28;4898409;29;20040;-92
2023/07/03 07:07:02;;;;;;;21.53;4.40;;;;;;;18.86;75.16;100913.88;4899716;29;20031;-91
2023/07/03 07:09:27;;;;;;;20.50;3.87;;;;;;;18.94;73.47;100914.25;4900273;29;20064;-95
2023/07/03 07:11:53;;;;;;;19.60;4.40;;;;;;;18.82;74.76;100909.41;4900335;29;20297;-93
2023/07/03 07:14:18;;;;;;;24.30;4.40;;;;;;;18.82;74.09;100921.03;4899691;29;20033;-92
2023/07/03 07:16:44;;;;;;;20.37;4.07;;;;;;;19.00;73.40;100934.72;4902298;29;20017;-93
2023/07/03 07:19:11;;;;;;;21.73;4.05;;;;;;;19.10;72.39;100929.03;4901198;29;20103;-92
2023/07/03 07:21:38;;;;;;;19.37;3.97;;;;;;;19.29;71.85;100930.72;4903826;29;20044;-93
2023/07/03 07:24:22;;;;;;;16.07;4.33;;;;;;;19.39;71.56;100911.41;4899490;29;20364;-90
2023/07/03 07:26:50;;;;;;;19.92;4.40;;;;;;;19.60;71.19;100927.13;4900047;29;20051;-92
2023/07/03 07:29:15;;;;;;;17.80;4.53;;;;;;;19.69;68.58;100925.22;4899467;29;20048;-91
2023/07/03 07:31:41;;;;;;;17.77;4.00;;;;;;;19.67;69.02;100932.91;4897217;29;20037;-91
2023/07/03 07:34:08;;;;;;;17.13;4.27;;;;;;;19.71;68.29;100923.00;4900919;29;20053;-90
2023/07/03 07:36:34;;;;;;;26.67;4.35;;;;;;;19.93;66.91;100927.50;4899113;29;20048;-91
2023/07/03 07:39:01;;;;;;;22.83;4.30;;;;;;;20.06;62.56;100933.09;4897443;29;20559;-92
2023/07/03 07:41:26;;;;;;;35.60;4.43;;;;;;;20.02;66.16;100927.53;4897259;29;20442;-88
2023/07/03 07:43:53;;;;;;;20.13;4.67;;;;;;;20.13;67.26;100920.63;4897489;29;20032;-88
2023/07/03 07:46:19;;;;;;;17.08;4.07;;;;;;;20.38;65.49;100925.56;4896468;29;20037;-89
2023/07/03 07:48:46;;;;;;;28.90;5.05;;;;;;;20.73;64.96;100930.94;4901114;29;20111;-87
2023/07/03 07:51:12;;;;;;;13.57;3.95;;;;;;;21.22;62.97;100938.03;4914405;29;20024;-88
2023/07/03 07:53:38;;;;;;;16.23;3.33;;;;;;;21.68;57.54;100927.38;4897464;29;20513;-90
2023/07/03 07:56:06;;;;;;;19.95;3.53;;;;;;;22.02;56.25;100942.66;4906162;29;20028;-91
2023/07/03 07:58:32;;;;;;;14.97;3.77;;;;;;;22.09;54.71;100936.69;4908286;29;20040;-90
2023/07/03 08:00:58;;;;;;;15.43;3.60;;;;;;;21.78;53.59;100937.88;4900886;29;20364;-92
2023/07/03 08:03:24;;;;;;;19.07;3.30;;;;;;;21.66;53.76;100940.53;4898662;29;20140;-88
2023/07/03 08:05:50;;;;;;;13.90;3.72;;;;;;;21.65;54.99;100945.19;4896791;29;20040;-91
2023/07/03 08:08:15;;;;;;;21.10;4.03;;;;;;;21.87;55.04;100937.81;4896965;29;20036;-88
2023/07/03 08:10:41;;;;;;;10.50;3.10;;;;;;;22.18;53.75;100947.53;4896369;29;20051;-91
2023/07/03 08:13:06;;;;;;;16.08;3.45;;;;;;;22.24;51.58;100948.91;4895067;29;20398;-91
2023/07/03 08:15:32;;;;;;;18.77;3.30;;;;;;;21.97;51.11;100936.63;4897283;29;20032;-96
2023/07/03 08:17:57;;;;;;;13.97;3.17;;;;;;;21.87;50.65;100957.72;4894270;29;20028;-92
2023/07/03 08:20:22;;;;;;;21.00;3.60;;;;;;;21.69;51.75;100950.78;4878604;29;20108;-90
2023/07/03 08:22:48;;;;;;;15.88;3.30;;;;;;;21.31;51.45;100955.94;4889347;29;20017;-92
2023/07/03 08:25:13;;;;;;;24.40;3.63;;;;;;;21.17;53.00;100955.34;4896397;29;20039;-90
2023/07/03 08:27:45;;;;;;;18.27;3.33;;;;;;;21.14;53.11;100958.72;4889815;29;20032;-95
2023/07/03 08:30:11;;;;;;;18.48;3.58;;;;;;;21.17;53.25;100958.09;4895079;29;20485;-88
2023/07/03 08:32:36;;;;;;;19.95;3.63;;;;;;;21.25;53.76;100964.63;4896314;29;20024;-87
2023/07/03 08:35:02;;;;;;;16.83;3.30;;;;;;;21.13;53.88;100955.19;4894642;29;20433;-89
2023/07/03 08:37:27;;;;;;;12.90;3.22;;;;;;;21.01;53.61;100966.78;4896139;29;20414;-91
2023/07/03 08:39:53;;;;;;;15.60;3.67;;;;;;;20.90;53.85;100951.91;4894810;29;20079;-91
2023/07/03 08:42:31;;;;;;;27.23;4.18;;;;;;;21.02;54.65;100971.09;4894468;29;20029;-88
2023/07/03 08:44:58;;;;;;;15.67;3.33;;;;;;;21.27;53.27;100976.78;4892989;29;20040;-89
2023/07/03 08:47:27;;;;;;;11.70;3.50;;;;;;;21.44;51.80;100973.19;4895833;29;20281;-85
2023/07/03 08:49:53;;;;;;;18.23;3.33;;;;;;;21.29;50.46;100971.00;4892975;29;20036;-87
2023/07/03 08:52:31;;;;;;;16.52;3.30;;;;;;;21.26;51.63;100971.66;4896317;29;20497;-91
2023/07/03 08:54:57;;;;;;;18.05;3.30;;;;;;;21.56;51.05;100980.63;4893651;29;20119;-87
2023/07/03 08:57:23;;;;;;;15.07;3.47;;;;;;;21.78;49.76;100981.50;4896005;29;20416;-89
2023/07/03 08:59:48;;;;;;;11.57;3.35;;;;;;;21.60;48.99;100973.44;4879345;29;20036;-87
2023/07/03 09:02:31;;;;;;;17.30;3.60;;;;;;;21.77;50.75;100971.72;4879231;29;20033;-88
2023/07/03 09:05:49;;;;;;;13.68;3.45;;;;;;;22.03;49.52;100970.75;4878122;29;20025;-87
2023/07/03 09:08:24;;;;;;;12.65;3.55;;;;;;;21.56;49.11;100971.69;4883473;29;20112;-91
2023/07/03 09:10:50;;;;;;;11.23;3.42;;;;;;;21.21;49.88;100969.13;4908973;29;20056;-94
2023/07/03 09:13:45;;;;;;;14.07;3.65;;;;;;;21.10;51.28;100957.78;4906020;29;20532;-89
2023/07/03 09:16:19;;;;;;;16.48;3.78;;;;;;;20.98;51.90;100970.16;4889937;29;20124;-93
2023/07/03 09:19:00;;;;;;;15.60;3.80;;;;;;;21.32;52.97;100968.44;4907656;29;20091;-96
2023/07/03 09:21:28;;;;;;;11.73;3.10;;;;;;;21.46;50.09;100964.66;4890001;29;20296;-95
2023/07/03 09:24:14;;;;;;;16.15;3.70;;;;;;;21.75;49.17;100958.44;4903554;29;20048;-95
2023/07/03 09:27:22;;;;;;;15.50;3.72;;;;;;;22.35;49.44;100971.94;4910664;29;20047;-96
2023/07/03 09:29:49;;;;;;;13.77;4.10;;;;;;;22.45;47.72;100948.13;4910318;29;20060;-95
2023/07/03 09:32:28;;;;;;;10.00;3.65;;;;;;;22.90;46.93;100946.53;4908902;29;20177;-95
2023/07/03 09:35:06;;;;;;;16.20;3.67;;;;;;;22.77;45.63;100954.69;4909383;29;20048;-96
2023/07/03 09:37:37;;;;;;;9.73;3.67;;;;;;;22.27;46.93;100956.44;4893334;29;20092;-96
2023/07/03 09:40:08;;;;;;;11.20;3.55;;;;;;;21.73;48.14;100976.25;4903118;29;20044;-96
2023/07/03 09:42:34;;;;;;;14.80;4.18;;;;;;;21.22;50.26;100957.09;4895335;29;20085;-96
2023/07/03 09:45:11;;;;;;;19.23;3.83;;;;;;;21.06;51.42;100937.75;4883679;29;20146;-96
2023/07/03 09:47:36;;;;;;;16.00;4.28;;;;;;;21.45;50.10;100949.44;4891840;29;20512;-95
2023/07/03 09:50:06;;;;;;;15.75;3.92;;;;;;;22.16;49.35;100971.63;4888328;29;20029;-91
2023/07/03 09:52:32;;;;;;;15.83;4.00;;;;;;;22.37;46.10;100944.31;4885933;29;20048;-93
2023/07/03 09:55:02;;;;;;;14.85;4.00;;;;;;;22.83;45.58;100964.25;4878604;29;20056;-96
2023/07/03 09:57:28;;;;;;;11.05;3.78;;;;;;;23.11;44.67;100973.75;4890723;29;20036;-96
2023/07/03 10:00:07;;;;;;;14.18;4.32;;;;;;;23.17;45.23;100977.88;4888517;29;20040;-93
2023/07/03 10:02:32;;;;;;;12.25;4.22;;;;;;;22.97;44.46;100957.69;4883908;29;20036;-95
2023/07/03 10:04:58;;;;;;;11.00;5.07;;;;;;;23.04;43.82;100968.06;4905486;29;20089;-96
2023/07/03 10:07:23;;;;;;;12.23;3.60;;;;;;;22.89;44.04;100959.41;4913294;29;20043;-95
2023/07/03 10:09:49;;;;;;;14.33;4.30;;;;;;;22.74;43.87;100969.03;4918124;29;20028;-93
2023/07/03 10:12:19;;;;;;;10.27;3.65;;;;;;;22.99;44.19;100966.34;4920056;29;20032;-96
2023/07/03 10:17:41;;;;;;;13.77;4.30;;;;;;;23.11;42.96;100963.63;5022203;23;20080;-96
2023/07/03 10:20:12;;;;;;;13.48;4.13;;;;;;;23.23;42.76;100946.47;5220617;23;20914;-96
2023/07/03 10:22:58;;;;;;;11.25;3.65;;;;;;;23.94;43.29;100964.63;4965418;23;20068;-96
2023/07/03 10:30:37;;;;;;;15.40;4.22;;;;;;;25.11;39.03;100989.34;5087590;23;20059;-96
2023/07/03 10:33:10;;;;;;;9.80;4.03;;;;;;;24.24;38.88;100962.38;4937725;29;20016;-93
2023/07/03 10:38:29;;;;;;;13.45;3.92;;;;;;;24.21;38.81;100984.97;5459000;23;20076;-94
2023/07/03 10:46:07;;;;;;;11.80;3.92;;;;;;;23.77;39.03;100980.16;5055365;23;20036;-95
2023/07/03 10:48:34;;;;;;;10.45;3.38;;;;;;;23.82;39.28;100990.06;4934201;29;20024;-95
2023/07/03 10:51:20;;;;;;;9.85;3.40;;;;;;;24.01;39.71;100973.88;5015397;23;20076;-93
2023/07/03 10:53:58;;;;;;;13.82;3.80;;;;;;;23.64;40.27;100995.78;4910265;29;20652;-96
2023/07/03 10:56:45;;;;;;;10.70;3.65;;;;;;;23.29;40.20;100988.03;4913237;29;20087;-96
2023/07/03 10:59:28;;;;;;;11.23;3.40;;;;;;;23.07;40.35;100990.03;4907086;29;20044;-95
2023/07/03 11:02:12;;;;;;;11.20;3.33;;;;;;;23.16;39.85;100989.16;4915102;29;20378;-95
2023/07/03 11:05:09;;;;;;;9.15;3.00;;;;;;;23.67;40.95;100997.84;4967393;23;20032;-96
2023/07/03 11:08:02;;;;;;;16.85;3.28;;;;;;;24.17;39.46;100962.19;4921193;29;20052;-96
2023/07/03 11:10:36;;;;;;;8.57;3.10;;;;;;;24.25;36.15;100991.38;4917742;29;20041;-96
2023/07/03 11:13:41;;;;;;;7.47;2.70;;;;;;;24.12;37.58;100967.88;4904022;29;20101;-96
2023/07/03 11:16:16;;;;;;;14.10;3.13;;;;;;;24.65;36.86;100971.31;4890049;29;20041;-94
2023/07/03 11:18:57;;;;;;;7.38;2.88;;;;;;;25.13;35.02;100984.31;4899781;29;20085;-91
2023/07/03 11:21:50;;;;;;;12.40;3.00;;;;;;;25.30;34.69;100980.38;4898417;29;20060;-94
2023/07/03 11:24:22;;;;;;;7.95;3.00;;;;;;;25.37;34.67;100988.78;4898677;29;20158;-95
2023/07/03 11:26:57;;;;;;;8.77;2.93;;;;;;;25.46;34.83;100990.59;4898701;29;20021;-96
2023/07/03 11:29:23;;;;;;;11.43;2.80;;;;;;;25.56;33.19;100990.03;4901039;29;20294;-96
2023/07/03 11:31:50;;;;;;;8.30;2.22;;;;;;;25.43;32.87;100994.03;4901326;29;20021;-96
2023/07/03 11:34:18;;;;;;;10.73;2.78;;;;;;;25.01;33.19;100982.44;4901192;29;20024;-95
2023/07/03 11:36:49;;;;;;;8.30;2.63;;;;;;;24.52;34.23;100999.13;4898451;29;20025;-96
2023/07/03 11:39:29;;;;;;;11.20;2.63;;;;;;;24.15;35.32;101011.00;4900613;29;20033;-96
2023/07/03 11:42:00;;;;;;;7.13;2.60;;;;;;;24.30;35.15;100999.31;4902401;29;20127;-95
2023/07/03 11:44:45;;;;;;;6.00;2.28;;;;;;;24.91;35.49;100982.97;4902332;29;20064;-96